Time;durP1;ratioP1;P1;durP2;ratioP2;P2;SDS_P1;SDS_P2;PMS_P1;PMS_P2;Temp;Humidity;BMP_temperature;BMP_pressure;BME280_temperature;BME280_humidity;BME280_pressure;Samples;Min_cycle;Max_cycle;Signal;HPM_P1;HPM_P2
2023/12/13 00:01:51;;;;;;;6.20;4.37;;;7.70;99.90;;;;;;5055307;28;20511;-70
2023/12/13 00:04:17;;;;;;;4.67;4.27;;;7.70;99.90;;;;;;5055021;28;20527;-70
2023/12/13 00:06:43;;;;;;;4.30;4.00;;;7.70;99.90;;;;;;5055353;28;20620;-70
2023/12/13 00:09:09;;;;;;;6.83;4.37;;;7.70;99.90;;;;;;5055110;28;20281;-70
2023/12/13 00:11:35;;;;;;;4.53;4.13;;;7.80;99.90;;;;;;5054814;28;20698;-70
2023/12/13 00:14:01;;;;;;;7.93;4.20;;;7.80;99.90;;;;;;5053525;28;20214;-70
2023/12/13 00:16:26;;;;;;;7.67;4.53;;;7.80;99.90;;;;;;5054706;28;20171;-70
2023/12/13 00:18:52;;;;;;;4.43;4.07;;;7.80;99.90;;;;;;5053223;28;20587;-70
2023/12/13 00:21:18;;;;;;;6.33;4.00;;;7.80;99.90;;;;;;5055156;28;20178;-70
2023/12/13 00:23:46;;;;;;;6.10;4.40;;;7.80;99.90;;;;;;5053290;28;20222;-70
2023/12/13 00:26:16;;;;;;;4.73;4.23;;;7.70;99.90;;;;;;5053222;28;20284;-70
2023/12/13 00:28:42;;;;;;;7.67;4.50;;;7.70;99.90;;;;;;5053018;28;20213;-70
2023/12/13 00:31:09;;;;;;;6.53;4.53;;;7.70;99.90;;;;;;5054155;28;20179;-70
2023/12/13 00:33:34;;;;;;;4.87;4.20;;;7.70;99.90;;;;;;5054373;28;20256;-70
2023/12/13 00:36:00;;;;;;;5.13;4.53;;;7.70;99.90;;;;;;5054869;28;20210;-70
2023/12/13 00:38:26;;;;;;;4.97;4.57;;;7.70;99.90;;;;;;5054218;28;20187;-70
2023/12/13 00:40:52;;;;;;;5.40;4.90;;;7.60;99.90;;;;;;5053037;28;20178;-70
2023/12/13 00:43:18;;;;;;;5.97;5.37;;;7.60;99.90;;;;;;5054112;28;20173;-70
2023/12/13 00:45:43;;;;;;;6.93;5.40;;;7.60;99.90;;;;;;5053906;28;20170;-69
2023/12/13 00:48:09;;;;;;;10.63;5.27;;;7.60;99.90;;;;;;5052453;28;20585;-70
2023/12/13 00:50:35;;;;;;;12.60;6.30;;;7.70;99.90;;;;;;5054039;28;20607;-70
2023/12/13 00:53:01;;;;;;;9.93;5.70;;;7.60;99.90;;;;;;5052646;28;20175;-70
2023/12/13 00:55:28;;;;;;;9.23;6.17;;;7.60;99.90;;;;;;5052599;28;20182;-70
2023/12/13 00:57:54;;;;;;;9.40;6.20;;;7.60;99.90;;;;;;5053982;28;20186;-70
2023/12/13 01:00:20;;;;;;;9.57;6.17;;;7.60;99.90;;;;;;5052374;28;20178;-70
2023/12/13 01:02:46;;;;;;;7.07;6.37;;;7.50;99.90;;;;;;5053810;28;20241;-70
2023/12/13 01:05:11;;;;;;;11.30;6.53;;;7.60;99.90;;;;;;5052517;28;20182;-70
2023/12/13 01:07:37;;;;;;;8.57;6.30;;;7.50;99.90;;;;;;5053738;28;20202;-70
2023/12/13 01:10:04;;;;;;;7.47;6.23;;;7.60;99.90;;;;;;5053582;28;20206;-70
2023/12/13 01:12:30;;;;;;;13.90;6.47;;;7.60;99.90;;;;;;5053959;28;20166;-70
2023/12/13 01:14:55;;;;;;;11.40;6.57;;;7.50;99.90;;;;;;5053282;28;20175;-70
2023/12/13 01:17:21;;;;;;;8.53;6.23;;;7.50;99.90;;;;;;5053589;28;20190;-70
2023/12/13 01:19:47;;;;;;;7.60;6.73;;;7.50;99.90;;;;;;5053340;28;20204;-70
2023/12/13 01:22:13;;;;;;;10.13;7.33;;;7.50;99.90;;;;;;5052315;28;20273;-70
2023/12/13 01:24:38;;;;;;;13.53;6.90;;;7.60;99.90;;;;;;5054150;28;20642;-70
2023/12/13 01:27:05;;;;;;;10.87;6.80;;;7.50;99.90;;;;;;5053304;28;20174;-70
2023/12/13 01:29:31;;;;;;;10.57;6.77;;;7.40;99.90;;;;;;5053255;28;20201;-70
2023/12/13 01:31:57;;;;;;;11.17;6.50;;;7.40;99.90;;;;;;5052091;28;20179;-70
2023/12/13 01:34:22;;;;;;;12.23;7.03;;;7.30;99.90;;;;;;5053616;28;20201;-70
2023/12/13 01:36:48;;;;;;;10.43;6.27;;;7.20;99.90;;;;;;5053947;28;20174;-71
2023/12/13 01:39:17;;;;;;;11.67;6.93;;;7.20;99.90;;;;;;5052336;28;20281;-70
2023/12/13 01:41:43;;;;;;;8.50;5.97;;;7.20;99.90;;;;;;5053661;28;20546;-70
2023/12/13 01:44:10;;;;;;;12.07;7.00;;;7.20;99.90;;;;;;5051988;28;20210;-70
2023/12/13 01:46:36;;;;;;;11.07;6.80;;;7.10;99.90;;;;;;5053332;28;20185;-70
2023/12/13 01:49:05;;;;;;;7.33;6.53;;;7.20;99.90;;;;;;5051913;28;20224;-70
2023/12/13 01:51:34;;;;;;;9.20;6.37;;;7.10;99.90;;;;;;5052518;28;20170;-70
2023/12/13 01:54:01;;;;;;;9.60;6.60;;;7.10;99.90;;;;;;5053953;28;20697;-70
2023/12/13 01:56:28;;;;;;;8.57;6.30;;;7.10;99.90;;;;;;5053279;28;20178;-70
2023/12/13 01:58:54;;;;;;;10.33;6.50;;;7.10;99.90;;;;;;5052094;28;20232;-70
2023/12/13 02:01:20;;;;;;;9.20;5.87;;;7.10;99.90;;;;;;5053784;28;20175;-70
2023/12/13 02:03:46;;;;;;;8.13;5.97;;;7.10;99.90;;;;;;5054681;28;20174;-70
2023/12/13 02:06:12;;;;;;;8.43;6.17;;;7.10;99.90;;;;;;5053971;28;20198;-70
2023/12/13 02:08:38;;;;;;;16.07;6.80;;;7.10;99.90;;;;;;5051654;28;20198;-70
2023/12/13 02:11:04;;;;;;;9.07;6.23;;;7.10;99.90;;;;;;5052939;28;20635;-70
2023/12/13 02:13:30;;;;;;;8.80;6.47;;;7.10;99.90;;;;;;5052814;28;20170;-70
2023/12/13 02:15:56;;;;;;;11.43;6.17;;;7.10;99.90;;;;;;5051586;28;20679;-70
2023/12/13 02:18:22;;;;;;;10.53;6.23;;;7.20;99.90;;;;;;5052691;28;20199;-70
2023/12/13 02:20:50;;;;;;;11.07;6.27;;;7.10;99.90;;;;;;5052833;28;20224;-70
2023/12/13 02:23:15;;;;;;;7.47;6.30;;;7.20;99.90;;;;;;5052782;28;20167;-70
2023/12/13 02:25:52;;;;;;;10.93;6.27;;;7.20;99.90;;;;;;5052863;28;20193;-70
2023/12/13 02:28:18;;;;;;;18.17;7.13;;;7.30;99.90;;;;;;5053028;28;20687;-70
2023/12/13 02:30:46;;;;;;;12.97;6.63;;;7.20;99.90;;;;;;5052846;28;20229;-70
2023/12/13 02:33:12;;;;;;;9.53;6.53;;;7.30;99.90;;;;;;5056914;28;20185;-70
2023/12/13 02:35:37;;;;;;;13.10;6.80;;;7.20;99.90;;;;;;5056726;28;20166;-69
2023/12/13 02:38:04;;;;;;;14.07;7.10;;;7.20;99.90;;;;;;5056752;28;20202;-70
2023/12/13 02:40:29;;;;;;;11.50;6.83;;;7.20;99.90;;;;;;5056491;28;20288;-70
2023/12/13 02:42:55;;;;;;;13.07;7.17;;;7.20;99.90;;;;;;5057023;28;20210;-70
2023/12/13 02:45:21;;;;;;;14.07;6.60;;;7.20;99.90;;;;;;5054844;28;20185;-70
2023/12/13 02:47:49;;;;;;;10.37;6.90;;;7.20;99.90;;;;;;5056500;28;20195;-70
2023/12/13 02:50:15;;;;;;;9.07;6.40;;;7.20;99.90;;;;;;5056497;28;20644;-70
2023/12/13 02:52:41;;;;;;;17.87;8.30;;;7.20;99.90;;;;;;5056536;28;20203;-71
2023/12/13 02:55:11;;;;;;;12.13;7.13;;;7.20;99.90;;;;;;5056301;28;20232;-71
2023/12/13 02:57:37;;;;;;;11.70;6.87;;;7.20;99.90;;;;;;5056416;28;20186;-70
2023/12/13 03:00:04;;;;;;;13.73;6.80;;;7.20;99.90;;;;;;5054611;28;20178;-70
2023/12/13 03:02:31;;;;;;;12.50;6.23;;;7.20;99.90;;;;;;5054758;28;20174;-70
2023/12/13 03:04:57;;;;;;;11.33;6.93;;;7.20;99.90;;;;;;5055938;28;20175;-69
2023/12/13 03:07:23;;;;;;;12.97;6.77;;;7.20;99.90;;;;;;5056142;28;20202;-70
2023/12/13 03:09:49;;;;;;;9.00;6.37;;;7.20;99.90;;;;;;5055175;28;20255;-70
2023/12/13 03:12:15;;;;;;;14.17;6.37;;;7.20;99.90;;;;;;5054977;28;20201;-70
2023/12/13 03:14:41;;;;;;;7.10;5.77;;;7.30;99.90;;;;;;5055840;28;20245;-71
2023/12/13 03:17:07;;;;;;;8.07;5.93;;;7.30;99.90;;;;;;5056315;28;20198;-70
2023/12/13 03:19:33;;;;;;;10.27;5.93;;;7.30;99.90;;;;;;5055746;28;20178;-70
2023/12/13 03:21:58;;;;;;;12.80;6.97;;;7.30;99.90;;;;;;5055946;28;20175;-70
2023/12/13 03:24:24;;;;;;;11.13;6.20;;;7.30;99.90;;;;;;5056096;28;20185;-70
2023/12/13 03:26:50;;;;;;;7.57;5.37;;;7.30;99.90;;;;;;5055475;28;20655;-70
2023/12/13 03:29:16;;;;;;;8.50;5.40;;;7.40;99.90;;;;;;5055485;28;20205;-70
2023/12/13 03:31:43;;;;;;;8.47;5.63;;;7.40;99.90;;;;;;5055289;28;20186;-70
2023/12/13 03:34:09;;;;;;;9.37;6.00;;;7.40;99.90;;;;;;5054233;28;20175;-71
2023/12/13 03:36:35;;;;;;;10.13;5.80;;;7.40;99.90;;;;;;5055599;28;20194;-71
2023/12/13 03:39:00;;;;;;;7.30;6.07;;;7.30;99.90;;;;;;5055245;28;20577;-70
2023/12/13 03:41:26;;;;;;;12.00;6.07;;;7.30;99.90;;;;;;5053872;28;20652;-70
2023/12/13 03:43:52;;;;;;;6.97;5.63;;;7.30;99.90;;;;;;5054981;28;20174;-70
2023/12/13 03:46:18;;;;;;;11.23;5.70;;;7.30;99.90;;;;;;5055036;28;20549;-70
2023/12/13 03:48:44;;;;;;;7.47;5.13;;;7.30;99.90;;;;;;5054875;28;20214;-70
2023/12/13 03:51:09;;;;;;;11.47;5.83;;;7.30;99.90;;;;;;5055600;28;20258;-70
2023/12/13 03:53:39;;;;;;;9.80;5.50;;;7.30;99.90;;;;;;5055435;28;20169;-70
2023/12/13 03:56:05;;;;;;;8.97;5.37;;;7.30;99.90;;;;;;5053795;28;20549;-70
2023/12/13 03:58:31;;;;;;;11.00;5.63;;;7.30;99.90;;;;;;5053587;28;20247;-70
2023/12/13 04:00:59;;;;;;;6.30;5.13;;;7.30;99.90;;;;;;5053268;28;20265;-70
2023/12/13 04:03:25;;;;;;;8.90;4.90;;;7.30;99.90;;;;;;5053690;28;20162;-70
2023/12/13 04:05:51;;;;;;;7.33;5.03;;;7.30;99.90;;;;;;5054867;28;20540;-70
2023/12/13 04:08:17;;;;;;;9.47;4.90;;;7.30;99.90;;;;;;5053548;28;20190;-70
2023/12/13 04:10:42;;;;;;;10.23;5.50;;;7.20;99.90;;;;;;5053430;28;20292;-70
2023/12/13 04:13:09;;;;;;;10.47;5.10;;;7.20;99.90;;;;;;5055277;28;20175;-70
2023/12/13 04:15:34;;;;;;;11.63;6.17;;;7.20;99.90;;;;;;5053143;28;20188;-70
2023/12/13 04:18:00;;;;;;;7.70;6.03;;;7.20;99.90;;;;;;5053533;28;20194;-70
2023/12/13 04:20:26;;;;;;;10.23;5.53;;;7.20;99.90;;;;;;5054504;28;20174;-70
2023/12/13 04:22:52;;;;;;;10.17;5.07;;;7.30;99.90;;;;;;5053352;28;20269;-70
2023/12/13 04:25:18;;;;;;;6.73;5.10;;;7.30;99.90;;;;;;5053199;28;20174;-70
2023/12/13 04:27:45;;;;;;;8.43;5.43;;;7.30;99.90;;;;;;5054428;28;20198;-70
2023/12/13 04:30:12;;;;;;;14.37;6.30;;;7.30;99.90;;;;;;5052839;28;20198;-70
2023/12/13 04:32:38;;;;;;;7.37;5.40;;;7.30;99.90;;;;;;5054401;28;20648;-70
2023/12/13 04:35:05;;;;;;;6.20;5.07;;;7.30;99.90;;;;;;5053071;28;20174;-70
2023/12/13 04:37:32;;;;;;;9.47;5.60;;;7.30;99.90;;;;;;5054189;28;20194;-70
2023/12/13 04:39:58;;;;;;;9.03;6.10;;;7.40;99.90;;;;;;5054188;28;20533;-70
2023/12/13 04:42:24;;;;;;;12.50;5.73;;;7.30;99.90;;;;;;5053136;28;20235;-70
2023/12/13 04:44:50;;;;;;;18.83;5.53;;;7.30;99.90;;;;;;5054154;28;20171;-70
2023/12/13 04:47:17;;;;;;;8.37;5.47;;;7.30;99.90;;;;;;5052707;28;20198;-70
2023/12/13 04:49:43;;;;;;;8.67;5.47;;;7.30;99.90;;;;;;5053921;28;20268;-70
2023/12/13 04:52:09;;;;;;;10.27;5.97;;;7.30;99.90;;;;;;5052711;28;20179;-70
2023/12/13 04:54:35;;;;;;;13.30;6.33;;;7.30;99.90;;;;;;5053174;28;20167;-70
2023/12/13 04:57:01;;;;;;;9.53;5.70;;;7.30;99.90;;;;;;5054119;28;20204;-70
2023/12/13 04:59:27;;;;;;;9.27;5.70;;;7.30;99.90;;;;;;5052608;28;20182;-70
2023/12/13 05:01:53;;;;;;;9.37;5.57;;;7.30;99.90;;;;;;5052269;28;20217;-70
2023/12/13 05:04:19;;;;;;;11.67;5.70;;;7.40;99.90;;;;;;5052509;28;20183;-70
2023/12/13 05:06:44;;;;;;;14.47;5.73;;;7.40;99.90;;;;;;5053791;28;20202;-70
2023/12/13 05:09:10;;;;;;;10.87;5.73;;;7.30;99.90;;;;;;5052219;28;20210;-70
2023/12/13 05:11:36;;;;;;;8.53;5.70;;;7.30;99.90;;;;;;5052449;28;20265;-70
2023/12/13 05:14:03;;;;;;;8.10;5.90;;;7.30;99.90;;;;;;5052384;28;20174;-70
2023/12/13 05:16:29;;;;;;;10.17;6.07;;;7.40;99.90;;;;;;5053643;28;20167;-70
2023/12/13 05:18:54;;;;;;;12.70;6.00;;;7.40;99.90;;;;;;5053550;28;20194;-71
2023/12/13 05:21:21;;;;;;;9.03;6.13;;;7.40;99.90;;;;;;5052616;28;20175;-70
2023/12/13 05:23:48;;;;;;;9.47;6.27;;;7.30;99.90;;;;;;5052361;28;20183;-70
2023/12/13 05:26:13;;;;;;;12.30;5.83;;;7.30;99.90;;;;;;5052873;28;20185;-70
2023/12/13 05:28:39;;;;;;;13.07;6.47;;;7.40;99.90;;;;;;5053801;28;20675;-71
2023/12/13 05:31:05;;;;;;;13.37;5.87;;;7.40;99.90;;;;;;5053747;28;20193;-70
2023/12/13 05:33:31;;;;;;;17.83;6.07;;;7.40;99.90;;;;;;5053137;28;20174;-70
2023/12/13 05:35:57;;;;;;;8.83;5.93;;;7.40;99.90;;;;;;5052885;28;20558;-70
2023/12/13 05:38:22;;;;;;;8.53;5.83;;;7.40;99.90;;;;;;5053578;28;20208;-71
2023/12/13 05:40:48;;;;;;;11.63;6.33;;;7.40;99.90;;;;;;5052245;28;20209;-70
2023/12/13 05:43:14;;;;;;;12.70;6.73;;;7.40;99.90;;;;;;5053547;28;20182;-70
2023/12/13 05:45:40;;;;;;;15.37;6.40;;;7.50;99.90;;;;;;5051871;28;20554;-70
2023/12/13 05:48:06;;;;;;;14.53;6.27;;;7.50;99.90;;;;;;5053281;28;20244;-72
2023/12/13 05:50:31;;;;;;;8.83;5.93;;;7.50;99.90;;;;;;5053622;28;20225;-70
2023/12/13 05:52:57;;;;;;;14.23;6.20;;;7.50;99.90;;;;;;5052186;28;20179;-70
2023/12/13 05:55:23;;;;;;;13.40;6.30;;;7.50;99.90;;;;;;5051833;28;20257;-70
2023/12/13 05:57:49;;;;;;;13.63;6.47;;;7.50;99.90;;;;;;5053456;28;20190;-70
2023/12/13 06:00:15;;;;;;;10.77;6.13;;;7.50;99.90;;;;;;5051815;28;20178;-70
2023/12/13 06:02:41;;;;;;;15.40;6.77;;;7.50;99.90;;;;;;5051818;28;20206;-70
2023/12/13 06:05:07;;;;;;;6.70;5.83;;;7.50;99.90;;;;;;5055000;28;20612;-71
2023/12/13 06:07:33;;;;;;;11.17;6.17;;;7.50;99.90;;;;;;5057013;28;20204;-70
2023/12/13 06:09:59;;;;;;;10.63;6.90;;;7.50;99.90;;;;;;5057082;28;20210;-70
2023/12/13 06:12:25;;;;;;;14.70;6.80;;;7.40;99.90;;;;;;5057040;28;20174;-71
2023/12/13 06:14:50;;;;;;;10.50;6.70;;;7.40;99.90;;;;;;5057696;28;20171;-71
2023/12/13 06:17:16;;;;;;;13.90;7.03;;;7.40;99.90;;;;;;5056701;28;20190;-70
2023/12/13 06:19:42;;;;;;;14.57;6.60;;;7.40;99.90;;;;;;5055754;28;20228;-71
2023/12/13 06:22:10;;;;;;;12.60;6.50;;;7.40;99.90;;;;;;5056955;28;20185;-70
2023/12/13 06:24:35;;;;;;;12.80;5.87;;;7.40;99.90;;;;;;5055711;28;20265;-70
2023/12/13 06:27:01;;;;;;;15.43;6.43;;;7.40;99.90;;;;;;5055493;28;20257;-70
2023/12/13 06:29:27;;;;;;;10.13;6.10;;;7.40;99.90;;;;;;5055475;28;20228;-70
2023/12/13 06:31:53;;;;;;;11.93;6.17;;;7.40;99.90;;;;;;5056573;28;20173;-70
2023/12/13 06:34:19;;;;;;;14.40;6.50;;;7.40;99.90;;;;;;5056744;28;20175;-70
2023/12/13 06:36:45;;;;;;;11.83;5.73;;;7.40;99.90;;;;;;5056660;28;20202;-70
2023/12/13 06:39:11;;;;;;;13.13;6.20;;;7.40;99.90;;;;;;5055110;28;20202;-70
2023/12/13 06:41:39;;;;;;;13.73;5.97;;;7.40;99.90;;;;;;5056519;28;20175;-70
2023/12/13 06:44:05;;;;;;;14.17;6.53;;;7.40;99.90;;;;;;5056381;28;20158;-70
2023/12/13 06:46:31;;;;;;;11.03;6.00;;;7.40;99.90;;;;;;5054905;28;20182;-70
2023/12/13 06:48:57;;;;;;;14.77;6.77;;;7.40;99.90;;;;;;5056042;28;20340;-70
2023/12/13 06:51:23;;;;;;;11.20;5.70;;;7.40;99.90;;;;;;5055661;28;20170;-70
2023/12/13 06:53:49;;;;;;;10.07;6.00;;;7.40;99.90;;;;;;5056551;28;20171;-70
2023/12/13 06:56:14;;;;;;;13.50;5.83;;;7.40;99.90;;;;;;5056341;28;20173;-70
2023/12/13 06:58:40;;;;;;;12.13;6.30;;;7.40;99.90;;;;;;5056152;28;20198;-70
2023/12/13 07:01:06;;;;;;;11.60;6.13;;;7.40;99.90;;;;;;5054566;28;20555;-70
2023/12/13 07:03:32;;;;;;;14.03;6.27;;;7.40;99.90;;;;;;5054762;28;20178;-69
2023/12/13 07:05:58;;;;;;;14.37;6.30;;;7.40;99.90;;;;;;5054769;28;20224;-70
2023/12/13 07:08:24;;;;;;;14.37;6.43;;;7.40;99.90;;;;;;5054826;28;20191;-70
2023/12/13 07:10:50;;;;;;;12.53;6.47;;;7.40;99.90;;;;;;5054686;28;20202;-70
2023/12/13 07:13:15;;;;;;;12.60;6.23;;;7.40;99.90;;;;;;5054670;28;20673;-70
2023/12/13 07:15:41;;;;;;;12.90;6.43;;;7.40;99.90;;;;;;5054357;28;20196;-70
2023/12/13 07:18:07;;;;;;;15.53;7.03;;;7.40;99.90;;;;;;5055181;28;20651;-70
2023/12/13 07:20:34;;;;;;;12.77;6.23;;;7.40;99.90;;;;;;5055801;28;20524;-70
2023/12/13 07:23:00;;;;;;;12.37;6.53;;;7.40;99.90;;;;;;5054479;28;20609;-69
2023/12/13 07:25:26;;;;;;;11.67;6.10;;;7.50;99.90;;;;;;5055934;28;20257;-69
2023/12/13 07:27:52;;;;;;;13.63;6.40;;;7.50;99.90;;;;;;5055612;28;20547;-70
2023/12/13 07:30:18;;;;;;;10.17;6.23;;;7.50;99.90;;;;;;5053916;28;20206;-70
2023/12/13 07:32:44;;;;;;;10.40;6.70;;;7.50;99.90;;;;;;5054188;28;20213;-69
2023/12/13 07:35:10;;;;;;;12.73;6.70;;;7.50;99.90;;;;;;5054220;28;20193;-70
2023/12/13 07:37:36;;;;;;;12.00;6.33;;;7.50;99.90;;;;;;5054032;28;20190;-70
2023/12/13 07:40:05;;;;;;;12.17;6.17;;;7.50;99.90;;;;;;5055311;28;20193;-70
2023/12/13 07:42:31;;;;;;;17.93;6.53;;;7.50;99.90;;;;;;5055930;28;20182;-69
2023/12/13 07:44:57;;;;;;;13.20;7.13;;;7.40;99.90;;;;;;5054163;28;20179;-70
2023/12/13 07:47:23;;;;;;;18.10;6.97;;;7.40;99.90;;;;;;5054904;28;20226;-70
2023/12/13 07:49:49;;;;;;;9.60;6.60;;;7.40;99.90;;;;;;5055184;28;20207;-70
2023/12/13 07:52:15;;;;;;;10.73;6.23;;;7.40;99.90;;;;;;5053861;28;20232;-70
2023/12/13 07:54:42;;;;;;;10.80;6.77;;;7.40;99.90;;;;;;5054126;28;20597;-70
2023/12/13 07:57:08;;;;;;;14.17;6.60;;;7.50;99.90;;;;;;5055001;28;20249;-70
2023/12/13 07:59:34;;;;;;;14.63;7.00;;;7.50;99.90;;;;;;5053725;28;20797;-70
2023/12/13 08:02:00;;;;;;;15.07;6.97;;;7.50;99.90;;;;;;5054688;28;20261;-70
2023/12/13 08:04:26;;;;;;;16.00;7.10;;;7.50;99.90;;;;;;5053678;28;20647;-70
2023/12/13 08:06:54;;;;;;;12.37;6.00;;;7.50;99.90;;;;;;5053486;28;20204;-71
2023/12/13 08:09:20;;;;;;;16.30;6.53;;;7.50;99.90;;;;;;5053462;28;20285;-70
2023/12/13 08:11:49;;;;;;;14.77;6.40;;;7.50;99.90;;;;;;5053508;28;20217;-70
2023/12/13 08:14:15;;;;;;;10.57;6.63;;;7.50;99.90;;;;;;5053537;28;20651;-70
2023/12/13 08:16:42;;;;;;;15.87;6.73;;;7.50;99.90;;;;;;5053076;28;20605;-70
2023/12/13 08:19:08;;;;;;;13.47;6.63;;;7.60;99.90;;;;;;5053544;28;20268;-70
2023/12/13 08:21:40;;;;;;;10.60;6.13;;;7.60;99.90;;;;;;5054602;28;20596;-70
2023/12/13 08:24:10;;;;;;;8.23;5.80;;;7.60;99.90;;;;;;5053249;28;20670;-70
2023/12/13 08:26:35;;;;;;;15.80;6.83;;;7.60;99.90;;;;;;5053335;28;20182;-70
2023/12/13 08:29:01;;;;;;;14.23;6.70;;;7.60;99.90;;;;;;5053274;28;20810;-70
2023/12/13 08:31:27;;;;;;;10.17;6.30;;;7.50;99.90;;;;;;5052877;28;20181;-70
2023/12/13 08:33:53;;;;;;;10.93;6.20;;;7.50;99.90;;;;;;5055032;28;20182;-70
2023/12/13 08:36:19;;;;;;;7.10;5.10;;;7.50;99.90;;;;;;5054477;28;20177;-70
2023/12/13 08:38:45;;;;;;;8.90;5.53;;;7.50;99.90;;;;;;5054305;28;20226;-70
2023/12/13 08:41:14;;;;;;;8.83;5.57;;;7.50;99.90;;;;;;5054200;28;20605;-70
2023/12/13 08:43:40;;;;;;;10.90;5.20;;;7.60;99.90;;;;;;5054745;28;20244;-70
2023/12/13 08:46:05;;;;;;;7.17;5.50;;;7.60;99.90;;;;;;5052774;28;20592;-70
2023/12/13 08:48:31;;;;;;;9.80;4.93;;;7.60;99.90;;;;;;5053910;28;20202;-70
2023/12/13 08:50:57;;;;;;;12.10;5.57;;;7.60;99.90;;;;;;5054359;28;20190;-70
2023/12/13 08:53:24;;;;;;;9.57;5.43;;;7.60;99.90;;;;;;5053995;28;20175;-70
2023/12/13 08:55:50;;;;;;;8.43;5.40;;;7.70;99.90;;;;;;5052649;28;20185;-70
2023/12/13 08:58:16;;;;;;;12.57;6.00;;;7.80;99.90;;;;;;5052494;28;20232;-70
2023/12/13 09:00:42;;;;;;;11.37;5.70;;;7.70;99.90;;;;;;5052234;28;20179;-70
2023/12/13 09:03:08;;;;;;;13.67;5.53;;;7.70;99.90;;;;;;5053748;28;20237;-70
2023/12/13 09:05:37;;;;;;;12.00;5.50;;;7.70;99.90;;;;;;5052480;28;20189;-70
2023/12/13 09:08:06;;;;;;;7.10;5.00;;;7.70;99.90;;;;;;5053515;28;20194;-70
2023/12/13 09:10:34;;;;;;;20.13;6.10;;;7.70;99.90;;;;;;5053919;28;20202;-70
2023/12/13 09:13:04;;;;;;;11.13;5.57;;;7.70;99.90;;;;;;5052375;28;20178;-70
2023/12/13 09:15:31;;;;;;;14.33;5.93;;;7.70;99.90;;;;;;5053891;28;20216;-70
2023/12/13 09:17:57;;;;;;;11.90;5.63;;;7.70;99.90;;;;;;5053290;28;20240;-71
2023/12/13 09:20:23;;;;;;;13.97;5.53;;;7.70;99.90;;;;;;5053717;28;20180;-71
2023/12/13 09:22:49;;;;;;;15.60;6.07;;;7.70;99.90;;;;;;5053436;28;20261;-71
2023/12/13 09:25:15;;;;;;;10.63;5.10;;;7.70;99.90;;;;;;5053982;28;20657;-70
2023/12/13 09:27:44;;;;;;;11.60;5.10;;;7.70;99.90;;;;;;5053630;28;20202;-71
2023/12/13 09:30:11;;;;;;;12.33;5.60;;;7.70;99.90;;;;;;5052031;28;20206;-71
2023/12/13 09:32:39;;;;;;;17.17;5.20;;;7.70;99.90;;;;;;5052211;28;20182;-71
2023/12/13 09:35:05;;;;;;;11.60;5.47;;;7.80;99.90;;;;;;5053377;28;20171;-71
2023/12/13 09:37:32;;;;;;;15.20;5.40;;;7.80;99.90;;;;;;5053368;28;20191;-71
2023/12/13 09:39:59;;;;;;;17.97;5.80;;;7.80;99.90;;;;;;5053121;28;20578;-71
2023/12/13 09:42:25;;;;;;;10.60;5.67;;;7.90;99.90;;;;;;5053621;28;20192;-71
2023/12/13 09:44:55;;;;;;;11.43;6.27;;;8.00;99.90;;;;;;5053709;28;20208;-71
2023/12/13 09:47:23;;;;;;;12.70;5.60;;;8.10;99.90;;;;;;5051698;28;20251;-71
2023/12/13 09:49:49;;;;;;;9.07;5.50;;;8.10;99.90;;;;;;5053053;28;20303;-70
2023/12/13 09:52:19;;;;;;;14.20;5.73;;;8.20;99.90;;;;;;5053367;28;20289;-70
2023/12/13 09:54:46;;;;;;;11.03;5.97;;;8.30;99.90;;;;;;5053277;28;20174;-70
2023/12/13 09:57:12;;;;;;;15.77;6.45;;;8.40;99.90;;;;;;5051981;28;20552;-70
2023/12/13 09:59:38;;;;;;;9.07;5.60;;;8.50;99.90;;;;;;5051842;28;20186;-69
2023/12/13 10:02:12;;;;;;;13.02;5.70;;;8.60;99.90;;;;;;5051411;28;20211;-69
2023/12/13 10:04:39;;;;;;;11.53;5.50;;;8.60;99.90;;;;;;5053276;28;20174;-69
2023/12/13 10:07:07;;;;;;;14.10;6.00;;;8.60;99.90;;;;;;5053309;28;20167;-69
2023/12/13 10:09:34;;;;;;;9.90;5.32;;;8.60;99.90;;;;;;5052968;28;20592;-69
2023/12/13 10:12:00;;;;;;;9.00;5.03;;;8.60;99.90;;;;;;5053729;28;20259;-70
2023/12/13 10:14:26;;;;;;;10.30;5.60;;;8.60;99.90;;;;;;5053543;28;20202;-70
2023/12/13 10:16:52;;;;;;;10.20;5.85;;;8.70;99.90;;;;;;5053171;28;20186;-70
2023/12/13 10:19:18;;;;;;;11.37;6.33;;;8.70;99.90;;;;;;5051733;28;20604;-70
2023/12/13 10:21:48;;;;;;;12.53;6.57;;;8.60;99.90;;;;;;5051545;28;20217;-70
2023/12/13 10:24:17;;;;;;;15.40;6.10;;;8.60;99.90;;;;;;5053022;28;20179;-69
2023/12/13 10:26:44;;;;;;;15.80;5.90;;;8.50;99.90;;;;;;5053082;28;20171;-69
2023/12/13 10:29:09;;;;;;;14.20;6.17;;;8.50;99.90;;;;;;5051420;28;20210;-70
2023/12/13 10:31:35;;;;;;;10.73;6.30;;;8.40;99.90;;;;;;5052451;28;20178;-69
2023/12/13 10:34:01;;;;;;;16.57;6.20;;;8.40;99.90;;;;;;5052765;28;20543;-69
2023/12/13 10:36:27;;;;;;;13.10;5.60;;;8.40;99.90;;;;;;5052781;28;20178;-70
2023/12/13 10:38:55;;;;;;;14.83;5.90;;;8.40;99.90;;;;;;5052744;28;20257;-69
2023/12/13 10:41:25;;;;;;;14.47;6.00;;;8.40;99.90;;;;;;5051622;28;20181;-69
2023/12/13 10:43:57;;;;;;;12.27;6.30;;;8.50;99.90;;;;;;5053347;28;20163;-69
2023/12/13 10:46:27;;;;;;;11.83;5.70;;;8.50;99.90;;;;;;5052831;28;20162;-69
2023/12/13 10:48:54;;;;;;;13.67;6.70;;;8.50;99.90;;;;;;5051101;28;20213;-68
2023/12/13 10:51:22;;;;;;;17.43;6.07;;;8.50;99.90;;;;;;5052596;28;20220;-68
2023/12/13 10:53:48;;;;;;;10.83;5.40;;;8.40;99.90;;;;;;5054569;28;20674;-68
2023/12/13 10:56:15;;;;;;;18.83;6.00;;;8.40;99.90;;;;;;5056427;28;20670;-69
2023/12/13 10:58:44;;;;;;;11.47;6.27;;;8.40;99.90;;;;;;5056283;28;20224;-69
2023/12/13 11:01:11;;;;;;;14.63;5.67;;;8.40;99.90;;;;;;5056557;28;20585;-69
2023/12/13 11:04:04;;;;;;;17.50;5.93;;;8.40;99.90;;;;;;5056806;28;20171;-69
2023/12/13 11:06:30;;;;;;;10.00;5.70;;;8.30;99.90;;;;;;5055568;28;20250;-69
2023/12/13 11:08:56;;;;;;;11.97;5.77;;;8.30;99.90;;;;;;5056439;28;20229;-69
2023/12/13 11:11:27;;;;;;;19.40;6.63;;;8.30;99.90;;;;;;5055873;28;20179;-69
2023/12/13 11:13:54;;;;;;;21.20;5.77;;;8.30;99.90;;;;;;5057537;28;20166;-69
2023/12/13 11:16:24;;;;;;;15.77;6.47;;;8.30;99.90;;;;;;5056470;28;20206;-69
2023/12/13 11:18:52;;;;;;;12.07;5.73;;;8.30;99.90;;;;;;5056135;28;20201;-69
2023/12/13 11:21:32;;;;;;;13.30;5.50;;;8.30;99.90;;;;;;5055038;28;20179;-69
2023/12/13 11:24:19;;;;;;;11.37;6.17;;;8.40;99.90;;;;;;5055607;28;20178;-71
2023/12/13 11:26:50;;;;;;;11.43;5.90;;;8.40;99.90;;;;;;5057050;28;20181;-69
2023/12/13 11:29:19;;;;;;;18.87;6.23;;;8.40;99.90;;;;;;5055801;28;20645;-69
2023/12/13 11:32:05;;;;;;;11.87;6.10;;;8.50;99.90;;;;;;5056041;28;20178;-69
2023/12/13 11:34:35;;;;;;;10.47;5.70;;;8.50;99.90;;;;;;5055088;28;20178;-69
2023/12/13 11:37:08;;;;;;;8.97;5.57;;;8.60;99.90;;;;;;5055614;28;20182;-69
2023/12/13 11:39:35;;;;;;;11.13;5.70;;;8.60;99.90;;;;;;5055798;28;20187;-69
2023/12/13 11:42:04;;;;;;;17.13;6.20;;;8.60;99.90;;;;;;5055618;28;20544;-69
2023/12/13 11:44:31;;;;;;;13.47;5.70;;;8.60;99.90;;;;;;5055394;28;20187;-69
2023/12/13 11:47:00;;;;;;;12.87;5.70;;;8.60;99.90;;;;;;5053766;28;20178;-69
2023/12/13 11:49:26;;;;;;;12.53;6.20;;;8.50;99.90;;;;;;5053741;28;20222;-69
2023/12/13 11:51:56;;;;;;;14.20;6.17;;;8.50;99.90;;;;;;5055516;28;20183;-69
2023/12/13 11:54:23;;;;;;;13.60;6.30;;;8.50;99.90;;;;;;5055127;28;20185;-69
2023/12/13 11:56:48;;;;;;;8.30;6.40;;;8.50;99.90;;;;;;5055062;28;20527;-69
2023/12/13 11:59:14;;;;;;;14.60;6.23;;;8.60;99.90;;;;;;5055033;28;20197;-68
2023/12/13 12:01:41;;;;;;;11.73;6.17;;;8.60;99.90;;;;;;5053494;28;20178;-68
2023/12/13 12:04:07;;;;;;;10.33;5.63;;;8.70;99.90;;;;;;5053420;28;20236;-69
2023/12/13 12:06:33;;;;;;;10.80;5.73;;;8.60;99.90;;;;;;5054960;28;20174;-68
2023/12/13 12:09:03;;;;;;;9.30;6.07;;;8.60;99.90;;;;;;5054655;28;20210;-69
2023/12/13 12:11:29;;;;;;;13.80;6.57;;;8.50;99.90;;;;;;5053619;28;20671;-68
2023/12/13 12:13:55;;;;;;;10.00;6.50;;;8.40;99.90;;;;;;5054921;28;20170;-69
2023/12/13 12:16:22;;;;;;;11.27;5.87;;;8.40;99.90;;;;;;5054477;28;20178;-69
2023/12/13 12:18:48;;;;;;;7.67;5.57;;;8.30;99.90;;;;;;5059369;28;20567;-69
2023/12/13 12:21:14;;;;;;;17.63;6.53;;;8.30;99.90;;;;;;5059464;28;20640;-69
2023/12/13 12:23:44;;;;;;;9.40;5.90;;;8.40;99.90;;;;;;5055070;28;20170;-69
2023/12/13 12:26:12;;;;;;;9.70;6.13;;;8.40;99.90;;;;;;5055148;28;20357;-69
2023/12/13 12:28:40;;;;;;;13.60;7.20;;;8.50;99.90;;;;;;5054731;28;20198;-69
2023/12/13 12:31:10;;;;;;;17.03;7.00;;;8.50;99.90;;;;;;5054649;28;20575;-69
2023/12/13 12:33:36;;;;;;;13.40;7.17;;;8.50;99.90;;;;;;5054121;28;20159;-69
2023/12/13 12:36:03;;;;;;;13.57;7.33;;;8.50;99.90;;;;;;5053168;28;20182;-69
2023/12/13 12:38:29;;;;;;;14.50;7.10;;;8.50;99.90;;;;;;5052962;28;20233;-69
2023/12/13 12:40:55;;;;;;;13.27;7.40;;;8.50;99.90;;;;;;5054200;28;20610;-69
2023/12/13 12:43:21;;;;;;;7.97;6.43;;;8.60;99.90;;;;;;5054215;28;20697;-69
2023/12/13 12:45:48;;;;;;;16.30;7.37;;;8.70;99.90;;;;;;5052881;28;20190;-69
2023/12/13 12:48:14;;;;;;;16.67;6.60;;;8.70;99.90;;;;;;5053547;28;20210;-69